createdAt,value
2023-02-04T00:00:26.804Z,101283.63
2023-02-04T00:02:54.313Z,101285.41
2023-02-04T00:05:21.987Z,101304.22
2023-02-04T00:07:49.400Z,101292.03
2023-02-04T00:10:16.816Z,101302.97
2023-02-04T00:12:44.082Z,101283.63
2023-02-04T00:15:11.553Z,101291.47
2023-02-04T00:17:39.559Z,101289.34
2023-02-04T00:20:07.180Z,101281.97
2023-02-04T00:22:34.500Z,101268.28
2023-02-04T00:25:01.877Z,101290.41
2023-02-04T00:27:29.461Z,101287.88
2023-02-04T00:29:57.680Z,101317.09
2023-02-04T00:32:25.290Z,101317.91
2023-02-04T00:34:54.990Z,101301.81
2023-02-04T00:37:22.496Z,101305.31
2023-02-04T00:39:50.941Z,101311.75
2023-02-04T00:42:18.247Z,101316.38
2023-02-04T00:44:45.680Z,101309.91
2023-02-04T00:47:13.035Z,101306.34
2023-02-04T00:49:40.427Z,101300.03
2023-02-04T00:52:07.818Z,101293.00
2023-02-04T00:54:35.345Z,101280.28
2023-02-04T00:57:04.098Z,101285.47
2023-02-04T00:59:31.465Z,101287.88
2023-02-04T01:01:58.876Z,101280.06
2023-02-04T01:04:28.054Z,101287.00
2023-02-04T01:06:55.448Z,101287.50
2023-02-04T01:09:22.787Z,101272.97
2023-02-04T01:11:52.299Z,101282.03
2023-02-04T01:14:20.116Z,101282.38
2023-02-04T01:16:47.725Z,101288.84
2023-02-04T01:19:15.052Z,101281.03
2023-02-04T01:21:42.597Z,101282.31
2023-02-04T01:24:13.275Z,101271.13
2023-02-04T01:27:04.075Z,101261.84
2023-02-04T01:29:32.780Z,101268.00
2023-02-04T01:32:00.174Z,101262.31
2023-02-04T01:34:27.537Z,101263.06
2023-02-04T01:36:54.801Z,101263.28
2023-02-04T01:39:22.119Z,101279.38
2023-02-04T01:41:49.550Z,101298.97
2023-02-04T01:44:17.016Z,101291.69
2023-02-04T01:46:44.435Z,101289.81
2023-02-04T01:49:12.146Z,101280.38
2023-02-04T01:51:39.856Z,101285.47
2023-02-04T01:54:12.023Z,101290.03
2023-02-04T01:56:40.874Z,101289.19
2023-02-04T01:59:16.443Z,101274.47
2023-02-04T02:01:49.114Z,101272.34
2023-02-04T02:04:28.299Z,101278.22
2023-02-04T02:06:58.944Z,101277.03
2023-02-04T02:09:27.667Z,101258.16
2023-02-04T02:11:55.083Z,101270.50
2023-02-04T02:14:22.859Z,101264.09
2023-02-04T02:16:51.220Z,101269.31
2023-02-04T02:19:29.772Z,101258.78
2023-02-04T02:22:05.372Z,101246.84
2023-02-04T02:24:34.993Z,101255.78
2023-02-04T02:27:07.321Z,101240.50
2023-02-04T02:29:35.757Z,101238.94
2023-02-04T02:32:03.402Z,101229.75
2023-02-04T02:34:31.512Z,101227.81
2023-02-04T02:37:00.516Z,101213.31
2023-02-04T02:39:28.285Z,101215.47
2023-02-04T02:41:57.156Z,101222.53
2023-02-04T02:44:26.445Z,101223.63
2023-02-04T02:46:54.928Z,101204.81
2023-02-04T02:49:22.772Z,101217.66
2023-02-04T02:51:50.148Z,101213.66
2023-02-04T02:54:44.047Z,101215.84
2023-02-04T02:57:20.574Z,101230.06
2023-02-04T02:59:48.144Z,101229.28
2023-02-04T03:02:22.044Z,101225.00
2023-02-04T03:04:56.729Z,101215.69
2023-02-04T03:07:27.492Z,101223.25
2023-02-04T03:09:54.947Z,101222.41
2023-02-04T03:12:22.268Z,101219.66
2023-02-04T03:14:49.865Z,101195.13
2023-02-04T03:17:17.580Z,101215.25
2023-02-04T03:19:47.220Z,101222.72
2023-02-04T03:22:15.027Z,101209.00
2023-02-04T03:24:42.602Z,101212.25
2023-02-04T03:27:10.543Z,101221.84
2023-02-04T03:29:43.732Z,101214.28
2023-02-04T03:32:11.665Z,101210.75
2023-02-04T03:34:39.017Z,101203.66
2023-02-04T03:37:06.392Z,101180.97
2023-02-04T03:39:33.809Z,101197.78
2023-02-04T03:42:01.116Z,101203.88
2023-02-04T03:44:29.585Z,101194.19
2023-02-04T03:46:57.047Z,101187.38
2023-02-04T03:49:24.826Z,101187.69
2023-02-04T03:51:52.119Z,101179.72
2023-02-04T03:54:19.441Z,101178.66
2023-02-04T03:56:46.984Z,101195.53
2023-02-04T03:59:14.334Z,101200.88
2023-02-04T04:01:41.811Z,101192.84
2023-02-04T04:04:09.205Z,101197.69
2023-02-04T04:06:36.493Z,101211.31
2023-02-04T04:09:04.927Z,101209.38
2023-02-04T04:11:32.252Z,101212.00
2023-02-04T04:14:01.176Z,101216.28
2023-02-04T04:16:29.042Z,101211.16
2023-02-04T04:18:56.576Z,101222.94
2023-02-04T04:21:27.093Z,101225.91
2023-02-04T04:23:54.478Z,101222.34
2023-02-04T04:26:21.736Z,101217.44
2023-02-04T04:28:49.197Z,101223.34
2023-02-04T04:31:16.589Z,101219.56
2023-02-04T04:33:43.948Z,101216.56
2023-02-04T04:36:12.112Z,101213.84
2023-02-04T04:38:39.486Z,101216.41
2023-02-04T04:41:06.836Z,101206.25
2023-02-04T04:43:34.166Z,101198.44
2023-02-04T04:46:01.491Z,101201.53
2023-02-04T04:48:28.846Z,101195.00
2023-02-04T04:50:56.261Z,101172.06
2023-02-04T04:53:23.720Z,101171.41
2023-02-04T04:55:51.036Z,101164.75
2023-02-04T04:58:18.396Z,101160.94
2023-02-04T05:00:45.750Z,101161.25
2023-02-04T05:03:13.093Z,101169.31
2023-02-04T05:05:41.410Z,101175.84
2023-02-04T05:08:13.878Z,101185.75
2023-02-04T05:10:41.740Z,101196.28
2023-02-04T05:13:09.491Z,101190.03
2023-02-04T05:15:36.908Z,101198.63
2023-02-04T05:18:04.569Z,101208.78
2023-02-04T05:20:32.328Z,101197.72
2023-02-04T05:23:01.285Z,101206.31
2023-02-04T05:25:29.068Z,101232.91
2023-02-04T05:27:56.489Z,101235.03
2023-02-04T05:30:23.889Z,101230.72
2023-02-04T05:32:51.214Z,101235.00
2023-02-04T05:35:18.653Z,101235.47
2023-02-04T05:37:46.040Z,101224.94
2023-02-04T05:40:14.025Z,101225.53
2023-02-04T05:42:42.224Z,101228.22
2023-02-04T05:45:15.027Z,101206.09
2023-02-04T05:47:42.644Z,101214.09
2023-02-04T05:50:10.921Z,101227.84
2023-02-04T05:52:38.875Z,101229.69
2023-02-04T05:55:07.068Z,101240.09
2023-02-04T05:57:34.373Z,101234.72
2023-02-04T06:00:01.739Z,101236.00
2023-02-04T06:02:39.498Z,101255.41
2023-02-04T06:05:07.116Z,101239.94
2023-02-04T06:07:34.544Z,101245.84
2023-02-04T06:10:01.924Z,101258.19
2023-02-04T06:12:29.266Z,101250.66
2023-02-04T06:14:56.737Z,101248.53
2023-02-04T06:17:24.048Z,101253.66
2023-02-04T06:19:51.413Z,101259.50
2023-02-04T06:22:18.781Z,101267.44
2023-02-04T06:24:47.465Z,101274.91
2023-02-04T06:27:23.239Z,101275.22
2023-02-04T06:29:53.174Z,101279.28
2023-02-04T06:32:21.685Z,101283.00
2023-02-04T06:34:49.619Z,101277.91
2023-02-04T06:37:17.259Z,101278.19
2023-02-04T06:39:44.658Z,101284.06
2023-02-04T06:42:13.417Z,101287.69
2023-02-04T06:44:40.861Z,101308.34
2023-02-04T06:47:08.285Z,101323.84
2023-02-04T06:49:35.650Z,101308.47
2023-02-04T06:52:03.041Z,101325.53
2023-02-04T06:54:30.336Z,101324.66
2023-02-04T06:57:03.781Z,101312.22
2023-02-04T06:59:33.105Z,101320.72
2023-02-04T07:02:00.463Z,101326.59
2023-02-04T07:04:27.823Z,101320.78
2023-02-04T07:06:57.647Z,101324.50
2023-02-04T07:09:25.045Z,101332.38
2023-02-04T07:11:52.384Z,101338.03
2023-02-04T07:14:20.136Z,101334.72
2023-02-04T07:16:47.591Z,101322.44
2023-02-04T07:19:15.165Z,101328.19
2023-02-04T07:21:42.516Z,101318.53
2023-02-04T07:24:09.876Z,101333.09
2023-02-04T07:26:37.190Z,101339.25
2023-02-04T07:29:05.815Z,101349.94
2023-02-04T07:31:34.469Z,101349.50
2023-02-04T07:34:01.896Z,101345.19
2023-02-04T07:36:29.285Z,101349.94
2023-02-04T07:38:56.553Z,101355.66
2023-02-04T07:41:24.000Z,101359.97
2023-02-04T07:43:51.240Z,101352.94
2023-02-04T07:46:18.591Z,101356.47
2023-02-04T07:48:45.952Z,101348.91
2023-02-04T07:51:13.367Z,101358.34
2023-02-04T07:53:40.728Z,101362.91
2023-02-04T07:56:08.097Z,101355.31
2023-02-04T07:58:35.437Z,101346.09
2023-02-04T08:01:02.993Z,101337.88
2023-02-04T08:03:30.264Z,101342.28
2023-02-04T08:05:57.679Z,101353.38
2023-02-04T08:08:25.053Z,101356.53
2023-02-04T08:10:52.441Z,101364.00
2023-02-04T08:13:19.785Z,101357.59
2023-02-04T08:15:47.222Z,101370.88
2023-02-04T08:18:14.586Z,101376.28
2023-02-04T08:20:41.929Z,101373.13
2023-02-04T08:23:10.392Z,101369.47
2023-02-04T08:25:37.742Z,101365.84
2023-02-04T08:28:05.149Z,101366.56
2023-02-04T08:30:32.936Z,101381.81
2023-02-04T08:33:00.446Z,101374.28
2023-02-04T08:35:27.852Z,101368.25
2023-02-04T08:37:55.146Z,101361.72
2023-02-04T08:40:22.637Z,101366.09
2023-02-04T08:42:49.988Z,101346.88
2023-02-04T08:45:18.041Z,101368.56
2023-02-04T08:47:45.337Z,101361.13
2023-02-04T08:50:13.097Z,101364.50
2023-02-04T08:52:40.384Z,101384.94
2023-02-04T08:55:08.630Z,101384.06
2023-02-04T08:57:36.004Z,101371.03
2023-02-04T09:00:04.287Z,101374.47
2023-02-04T09:02:31.693Z,101371.22
2023-02-04T09:04:59.110Z,101376.97
2023-02-04T09:07:26.386Z,101381.75
2023-02-04T09:09:53.720Z,101372.41
2023-02-04T09:12:20.977Z,101368.41
2023-02-04T09:14:48.407Z,101358.31
2023-02-04T09:17:15.706Z,101346.78
2023-02-04T09:19:43.055Z,101363.38
2023-02-04T09:22:11.599Z,101395.22
2023-02-04T09:24:39.186Z,101389.91
2023-02-04T09:27:06.627Z,101385.44
2023-02-04T09:29:34.023Z,101390.56
2023-02-04T09:32:01.371Z,101385.19
2023-02-04T09:34:28.784Z,101395.06
2023-02-04T09:36:56.099Z,101398.06
2023-02-04T09:39:23.547Z,101385.38
2023-02-04T09:41:53.897Z,101384.31
2023-02-04T09:44:24.734Z,101403.16
2023-02-04T09:46:55.699Z,101403.94
2023-02-04T09:49:23.836Z,101389.41
2023-02-04T09:51:51.787Z,101399.16
2023-02-04T09:54:22.750Z,101403.53
2023-02-04T09:56:53.162Z,101398.97
2023-02-04T09:59:27.423Z,101404.22
2023-02-04T10:02:01.359Z,101397.34
2023-02-04T10:04:29.182Z,101415.44
2023-02-04T10:07:00.150Z,101425.97
2023-02-04T10:09:27.657Z,101415.09
2023-02-04T10:11:55.072Z,101399.59
2023-02-04T10:14:23.806Z,101421.88
2023-02-04T10:16:59.394Z,101428.69
2023-02-04T10:19:29.358Z,101432.78
2023-02-04T10:21:57.156Z,101427.38
2023-02-04T10:24:30.633Z,101436.31
2023-02-04T10:27:12.233Z,101406.41
2023-02-04T10:29:42.244Z,101414.91
2023-02-04T10:32:26.937Z,101433.19
2023-02-04T10:34:59.380Z,101430.78
2023-02-04T10:37:26.784Z,101427.50
2023-02-04T10:39:54.201Z,101416.28
2023-02-04T10:42:24.556Z,101423.88
2023-02-04T10:44:52.802Z,101425.53
2023-02-04T10:47:22.511Z,101414.88
2023-02-04T10:49:56.108Z,101408.81
2023-02-04T10:52:33.870Z,101417.16
2023-02-04T10:55:03.907Z,101413.16
2023-02-04T10:57:37.410Z,101395.28
2023-02-04T11:00:14.560Z,101390.00
2023-02-04T11:03:06.582Z,101383.22
2023-02-04T11:05:36.532Z,101396.94
2023-02-04T11:08:21.717Z,101386.69
2023-02-04T11:10:56.890Z,101370.72
2023-02-04T11:13:42.648Z,101378.66
2023-02-04T11:16:19.080Z,101378.97
2023-02-04T11:18:52.449Z,101372.34
2023-02-04T11:21:34.792Z,101367.66
2023-02-04T11:24:24.122Z,101364.28
2023-02-04T11:26:54.118Z,101373.13
2023-02-04T11:29:35.936Z,101375.25
2023-02-04T11:32:29.618Z,101381.84
2023-02-04T11:35:28.606Z,101385.50
2023-02-04T11:37:56.939Z,101388.19
2023-02-04T11:40:29.312Z,101390.63
2023-02-04T11:43:12.756Z,101378.59
2023-02-04T11:45:41.184Z,101371.22
2023-02-04T11:48:21.453Z,101380.66
2023-02-04T11:50:56.876Z,101367.81
2023-02-04T11:53:28.615Z,101363.28
2023-02-04T11:55:55.901Z,101362.34
2023-02-04T11:58:26.057Z,101356.25
2023-02-04T12:00:53.510Z,101361.91
2023-02-04T12:03:26.730Z,101375.53
2023-02-04T12:05:57.233Z,101370.19
2023-02-04T12:08:24.716Z,101359.19
2023-02-04T12:11:00.311Z,101374.44
2023-02-04T12:13:30.383Z,101390.03
2023-02-04T12:16:04.159Z,101364.84
2023-02-04T12:18:33.900Z,101359.72
2023-02-04T12:21:04.415Z,101369.81
2023-02-04T12:23:31.824Z,101353.13
2023-02-04T12:25:59.805Z,101348.63
2023-02-04T12:28:30.790Z,101344.59
2023-02-04T12:30:58.164Z,101341.22
2023-02-04T12:33:26.024Z,101354.38
2023-02-04T12:35:53.566Z,101354.88
2023-02-04T12:38:21.907Z,101347.03
2023-02-04T12:40:52.672Z,101358.09
2023-02-04T12:43:20.000Z,101345.38
2023-02-04T12:45:49.779Z,101339.41
2023-02-04T12:48:17.433Z,101341.22
2023-02-04T12:50:45.880Z,101355.69
2023-02-04T12:53:13.182Z,101349.41
2023-02-04T12:55:40.999Z,101337.69
2023-02-04T12:58:08.428Z,101335.59
2023-02-04T13:00:35.905Z,101337.69
2023-02-04T13:03:03.568Z,101325.81
2023-02-04T13:05:31.610Z,101336.88
2023-02-04T13:08:02.403Z,101335.41
2023-02-04T13:10:29.704Z,101322.53
2023-02-04T13:12:57.108Z,101332.50
2023-02-04T13:15:24.376Z,101321.13
2023-02-04T13:17:51.769Z,101318.06
2023-02-04T13:20:21.694Z,101323.69
2023-02-04T13:22:49.015Z,101328.19
2023-02-04T13:25:16.450Z,101323.38
2023-02-04T13:27:43.824Z,101322.53
2023-02-04T13:30:13.655Z,101328.03
2023-02-04T13:32:41.921Z,101325.44
2023-02-04T13:35:09.492Z,101329.78
2023-02-04T13:37:38.207Z,101337.97
2023-02-04T13:40:07.962Z,101330.59
2023-02-04T13:42:35.713Z,101329.13
2023-02-04T13:45:06.558Z,101329.44
2023-02-04T13:47:33.953Z,101331.88
2023-02-04T13:50:01.274Z,101339.72
2023-02-04T13:52:28.645Z,101339.75
2023-02-04T13:54:56.653Z,101343.78
2023-02-04T13:57:26.296Z,101345.56
2023-02-04T13:59:54.574Z,101346.19
2023-02-04T14:02:23.979Z,101350.34
2023-02-04T14:04:51.349Z,101349.41
2023-02-04T14:07:18.930Z,101341.84
2023-02-04T14:09:48.284Z,101350.19
2023-02-04T14:12:15.777Z,101345.03
2023-02-04T14:14:43.092Z,101347.94
2023-02-04T14:17:10.384Z,101360.81
2023-02-04T14:19:37.718Z,101365.16
2023-02-04T14:22:05.109Z,101361.50
2023-02-04T14:27:17.227Z,101362.44
2023-02-04T14:29:44.557Z,101368.88
2023-02-04T14:32:11.918Z,101368.41
2023-02-04T14:34:39.178Z,101370.47
2023-02-04T14:37:06.553Z,101385.25
2023-02-04T14:39:33.861Z,101411.97
2023-02-04T14:42:04.436Z,101422.22
2023-02-04T14:44:35.351Z,101431.22
2023-02-04T14:47:02.767Z,101433.31
2023-02-04T14:49:30.385Z,101437.53
2023-02-04T14:51:57.778Z,101435.91
2023-02-04T14:54:25.101Z,101454.06
2023-02-04T14:56:52.631Z,101449.88
2023-02-04T14:59:19.971Z,101453.72
2023-02-04T15:01:47.321Z,101465.97
2023-02-04T15:04:14.685Z,101467.38
2023-02-04T15:06:42.068Z,101480.53
2023-02-04T15:09:09.571Z,101492.59
2023-02-04T15:11:37.153Z,101488.56
2023-02-04T15:14:04.959Z,101493.50
2023-02-04T15:16:32.439Z,101506.00
2023-02-04T15:19:05.664Z,101512.63
2023-02-04T15:21:33.108Z,101516.13
2023-02-04T15:24:00.572Z,101520.88
2023-02-04T15:26:31.016Z,101525.09
2023-02-04T15:28:58.479Z,101532.63
2023-02-04T15:31:27.264Z,101539.16
2023-02-04T15:33:54.676Z,101547.31
2023-02-04T15:36:22.242Z,101556.38
2023-02-04T15:38:49.620Z,101556.88
2023-02-04T15:41:16.985Z,101559.63
2023-02-04T15:43:44.553Z,101570.94
2023-02-04T15:46:12.003Z,101583.50
2023-02-04T15:48:39.392Z,101587.03
2023-02-04T15:51:06.717Z,101587.72
2023-02-04T15:53:35.105Z,101590.03
2023-02-04T15:56:02.405Z,101598.63
2023-02-04T15:58:29.709Z,101610.53
2023-02-04T16:00:57.482Z,101611.94
2023-02-04T16:03:24.928Z,101629.84
2023-02-04T16:05:52.250Z,101622.94
2023-02-04T16:08:19.561Z,101628.44
2023-02-04T16:10:47.161Z,101629.09
2023-02-04T16:13:14.659Z,101637.53
2023-02-04T16:15:41.989Z,101641.47
2023-02-04T16:18:09.344Z,101642.28
2023-02-04T16:20:37.556Z,101644.88
2023-02-04T16:23:07.165Z,101658.16
2023-02-04T16:25:34.944Z,101660.06
2023-02-04T16:28:03.818Z,101654.94
2023-02-04T16:30:31.174Z,101667.31
2023-02-04T16:32:58.572Z,101670.03
2023-02-04T16:35:27.119Z,101677.38
2023-02-04T16:37:54.453Z,101681.69
2023-02-04T16:40:21.789Z,101689.91
2023-02-04T16:42:49.221Z,101692.41
2023-02-04T16:45:19.654Z,101700.09
2023-02-04T16:47:47.032Z,101703.03
2023-02-04T16:50:14.439Z,101714.22
2023-02-04T16:52:41.856Z,101716.19
2023-02-04T16:55:09.241Z,101735.81
2023-02-04T16:57:36.652Z,101733.91
2023-02-04T17:00:04.661Z,101737.94
2023-02-04T17:02:37.082Z,101755.28
2023-02-04T17:05:05.770Z,101757.50
2023-02-04T17:07:33.401Z,101761.34
2023-02-04T17:10:00.891Z,101764.63
2023-02-04T17:12:28.345Z,101774.34
2023-02-04T17:14:55.675Z,101786.31
2023-02-04T17:17:23.045Z,101780.53
2023-02-04T17:19:50.630Z,101791.84
2023-02-04T17:22:18.063Z,101797.19
2023-02-04T17:24:45.411Z,101811.56
2023-02-04T17:27:13.027Z,101833.31
2023-02-04T17:29:40.325Z,101827.53
2023-02-04T17:32:08.678Z,101839.22
2023-02-04T17:34:36.048Z,101832.91
2023-02-04T17:37:03.394Z,101840.28
2023-02-04T17:39:31.124Z,101848.63
2023-02-04T17:41:58.792Z,101847.81
2023-02-04T17:44:27.700Z,101875.19
2023-02-04T17:46:55.234Z,101878.94
2023-02-04T17:49:22.706Z,101880.03
2023-02-04T17:51:50.925Z,101872.41
2023-02-04T17:54:18.269Z,101887.69
2023-02-04T17:56:45.541Z,101890.22
2023-02-04T17:59:13.115Z,101904.44
2023-02-04T18:01:41.570Z,101906.00
2023-02-04T18:04:12.977Z,101909.31
2023-02-04T18:06:40.424Z,101915.03
2023-02-04T18:09:26.998Z,101911.81
2023-02-04T18:11:54.309Z,101929.72
2023-02-04T18:14:27.847Z,101929.97
2023-02-04T18:16:58.482Z,101933.81
2023-02-04T18:19:29.211Z,101945.50
2023-02-04T18:21:58.608Z,101950.63
2023-02-04T18:24:32.492Z,101965.19
2023-02-04T18:27:02.192Z,101964.94
2023-02-04T18:29:37.383Z,101967.91
2023-02-04T18:32:20.434Z,101979.03
2023-02-04T18:34:52.986Z,101978.31
2023-02-04T18:37:42.563Z,101977.53
2023-02-04T18:40:09.907Z,101986.03
2023-02-04T18:42:39.607Z,101986.38
2023-02-04T18:45:16.359Z,101991.22
2023-02-04T18:47:44.021Z,101999.75
2023-02-04T18:50:33.162Z,102002.84
2023-02-04T18:53:19.491Z,102010.06
2023-02-04T18:55:49.716Z,102018.25
2023-02-04T18:58:17.223Z,102024.34
2023-02-04T19:01:17.028Z,102028.19
2023-02-04T19:04:03.384Z,102030.09
2023-02-04T19:06:40.024Z,102035.25
2023-02-04T19:09:10.212Z,102040.13
2023-02-04T19:11:38.900Z,102047.44
2023-02-04T19:14:13.199Z,102050.13
2023-02-04T19:16:41.460Z,102059.13
2023-02-04T19:19:35.732Z,102058.09
2023-02-04T19:22:35.312Z,102059.38
2023-02-04T19:25:22.542Z,102067.03
2023-02-04T19:27:58.191Z,102072.19
2023-02-04T19:30:28.322Z,102069.47
2023-02-04T19:33:10.100Z,102071.97
2023-02-04T19:35:43.239Z,102073.88
2023-02-04T19:38:45.043Z,102083.13
2023-02-04T19:41:28.235Z,102085.56
2023-02-04T19:44:14.166Z,102101.63
2023-02-04T19:46:42.436Z,102099.41
2023-02-04T19:49:21.937Z,102102.09
2023-02-04T19:51:53.794Z,102111.13
2023-02-04T19:54:24.253Z,102115.47
2023-02-04T19:56:55.153Z,102114.38
2023-02-04T19:59:33.492Z,102125.81
2023-02-04T20:02:06.733Z,102133.97
2023-02-04T20:04:42.546Z,102135.88
2023-02-04T20:07:19.843Z,102135.88
2023-02-04T20:09:47.624Z,102144.91
2023-02-04T20:12:16.599Z,102144.09
2023-02-04T20:14:56.007Z,102152.00
2023-02-04T20:17:46.524Z,102167.47
2023-02-04T20:20:26.356Z,102175.63
2023-02-04T20:23:21.548Z,102177.03
2023-02-04T20:25:50.437Z,102174.03
2023-02-04T20:28:23.762Z,102170.22
2023-02-04T20:30:52.152Z,102180.56
2023-02-04T20:33:35.387Z,102194.19
2023-02-04T20:36:41.088Z,102199.88
2023-02-04T20:39:26.829Z,102203.97
2023-02-04T20:41:54.631Z,102205.59
2023-02-04T20:44:35.757Z,102213.19
2023-02-04T20:47:24.856Z,102220.25
2023-02-04T20:49:58.718Z,102224.06
2023-02-04T20:52:41.223Z,102222.41
2023-02-04T20:56:03.786Z,102222.41
2023-02-04T20:58:35.896Z,102236.25
2023-02-04T21:01:03.740Z,102230.00
2023-02-04T21:03:37.724Z,102235.72
2023-02-04T21:06:21.237Z,102239.25
2023-02-04T21:08:51.165Z,102240.59
2023-02-04T21:11:19.030Z,102251.44
2023-02-04T21:13:47.609Z,102247.63
2023-02-04T21:16:15.895Z,102260.13
2023-02-04T21:18:43.311Z,102261.13
2023-02-04T21:21:10.689Z,102267.63
2023-02-04T21:23:38.250Z,102270.09
2023-02-04T21:26:06.394Z,102274.69
2023-02-04T21:28:34.052Z,102282.56
2023-02-04T21:31:01.758Z,102273.34
2023-02-04T21:33:29.134Z,102290.44
2023-02-04T21:35:56.451Z,102298.56
2023-02-04T21:38:23.858Z,102296.34
2023-02-04T21:40:51.354Z,102306.94
2023-02-04T21:43:18.780Z,102303.34
2023-02-04T21:45:46.110Z,102303.91
2023-02-04T21:48:14.750Z,102306.03
2023-02-04T21:50:42.203Z,102307.69
2023-02-04T21:53:09.855Z,102311.38
2023-02-04T21:55:37.980Z,102312.69
2023-02-04T21:58:05.862Z,102321.19
2023-02-04T22:00:33.802Z,102324.69
2023-02-04T22:03:01.489Z,102322.22
2023-02-04T22:05:32.425Z,102332.03
2023-02-04T22:08:00.065Z,102333.63
2023-02-04T22:10:27.391Z,102338.75
2023-02-04T22:12:54.759Z,102338.22
2023-02-04T22:15:22.637Z,102341.50
2023-02-04T22:17:53.676Z,102342.84
2023-02-04T22:20:23.731Z,102352.78
2023-02-04T22:22:55.174Z,102346.31
2023-02-04T22:25:22.714Z,102349.50
2023-02-04T22:27:50.347Z,102349.16
2023-02-04T22:30:18.228Z,102353.81
2023-02-04T22:32:45.736Z,102357.00
2023-02-04T22:35:14.166Z,102358.13
2023-02-04T22:37:42.354Z,102358.63
2023-02-04T22:40:13.157Z,102360.69
2023-02-04T22:42:40.878Z,102364.97
2023-02-04T22:45:11.644Z,102364.69
2023-02-04T22:47:39.148Z,102368.19
2023-02-04T22:50:06.858Z,102377.06
2023-02-04T22:52:34.305Z,102368.41
2023-02-04T22:55:01.675Z,102372.44
2023-02-04T22:57:29.083Z,102384.06
2023-02-04T22:59:56.375Z,102385.38
2023-02-04T23:02:23.689Z,102385.53
2023-02-04T23:04:51.252Z,102391.34
2023-02-04T23:07:19.071Z,102405.25
2023-02-04T23:09:47.671Z,102408.38
2023-02-04T23:12:15.086Z,102409.56
2023-02-04T23:14:44.916Z,102407.78
2023-02-04T23:17:13.434Z,102417.50
2023-02-04T23:19:40.979Z,102416.25
2023-02-04T23:22:10.375Z,102418.09
2023-02-04T23:24:38.712Z,102415.38
2023-02-04T23:27:06.771Z,102421.84
2023-02-04T23:29:35.364Z,102419.97
2023-02-04T23:32:03.541Z,102426.88
2023-02-04T23:34:31.273Z,102430.09
2023-02-04T23:36:58.620Z,102430.31
2023-02-04T23:39:26.173Z,102435.50
2023-02-04T23:41:53.658Z,102429.22
2023-02-04T23:44:21.129Z,102425.09
2023-02-04T23:46:48.580Z,102429.28
2023-02-04T23:49:16.017Z,102436.59
2023-02-04T23:51:43.516Z,102444.44
2023-02-04T23:54:10.930Z,102433.31
2023-02-04T23:56:38.307Z,102441.56
2023-02-04T23:59:06.006Z,102435.22
